sensor_id;sensor_type;location;lat;lon;timestamp;P1;durP1;ratioP1;P2;durP2;ratioP2
8050;SDS011;4068;42.158;24.732;2023-05-10T00:01:03;16.02;;;5.50;;
8050;SDS011;4068;42.158;24.732;2023-05-10T00:03:29;7.10;;;5.47;;
8050;SDS011;4068;42.158;24.732;2023-05-10T00:05:54;11.18;;;5.70;;
8050;SDS011;4068;42.158;24.732;2023-05-10T00:08:19;6.88;;;5.32;;
8050;SDS011;4068;42.158;24.732;2023-05-10T00:10:45;6.18;;;5.38;;
8050;SDS011;4068;42.158;24.732;2023-05-10T00:13:10;10.63;;;5.82;;
8050;SDS011;4068;42.158;24.732;2023-05-10T00:15:36;9.60;;;5.85;;
8050;SDS011;4068;42.158;24.732;2023-05-10T00:18:01;8.55;;;5.78;;
8050;SDS011;4068;42.158;24.732;2023-05-10T00:20:27;5.88;;;5.30;;
8050;SDS011;4068;42.158;24.732;2023-05-10T00:22:52;8.43;;;5.75;;
8050;SDS011;4068;42.158;24.732;2023-05-10T00:25:17;9.57;;;5.30;;
8050;SDS011;4068;42.158;24.732;2023-05-10T00:27:43;10.52;;;6.18;;
8050;SDS011;4068;42.158;24.732;2023-05-10T00:30:08;11.40;;;6.10;;
8050;SDS011;4068;42.158;24.732;2023-05-10T00:32:34;8.88;;;6.00;;
8050;SDS011;4068;42.158;24.732;2023-05-10T00:34:59;9.85;;;5.80;;
8050;SDS011;4068;42.158;24.732;2023-05-10T00:37:25;10.48;;;6.30;;
8050;SDS011;4068;42.158;24.732;2023-05-10T00:39:50;9.20;;;6.10;;
8050;SDS011;4068;42.158;24.732;2023-05-10T00:42:16;8.85;;;5.88;;
8050;SDS011;4068;42.158;24.732;2023-05-10T00:44:41;9.88;;;6.93;;
8050;SDS011;4068;42.158;24.732;2023-05-10T00:47:07;11.50;;;6.45;;
8050;SDS011;4068;42.158;24.732;2023-05-10T00:49:33;8.75;;;6.28;;
8050;SDS011;4068;42.158;24.732;2023-05-10T00:52:00;11.15;;;5.85;;
8050;SDS011;4068;42.158;24.732;2023-05-10T00:54:27;10.02;;;6.00;;
8050;SDS011;4068;42.158;24.732;2023-05-10T00:56:52;12.23;;;6.63;;
8050;SDS011;4068;42.158;24.732;2023-05-10T00:59:18;8.23;;;6.32;;
8050;SDS011;4068;42.158;24.732;2023-05-10T01:01:44;16.10;;;6.85;;
8050;SDS011;4068;42.158;24.732;2023-05-10T01:04:11;16.77;;;6.97;;
8050;SDS011;4068;42.158;24.732;2023-05-10T01:06:40;9.38;;;6.38;;
8050;SDS011;4068;42.158;24.732;2023-05-10T01:09:06;15.77;;;6.70;;
8050;SDS011;4068;42.158;24.732;2023-05-10T01:11:35;10.85;;;7.18;;
8050;SDS011;4068;42.158;24.732;2023-05-10T01:14:02;11.38;;;6.97;;
8050;SDS011;4068;42.158;24.732;2023-05-10T01:16:27;13.50;;;7.00;;
8050;SDS011;4068;42.158;24.732;2023-05-10T01:18:59;9.10;;;6.70;;
8050;SDS011;4068;42.158;24.732;2023-05-10T01:27:10;13.25;;;8.45;;
8050;SDS011;4068;42.158;24.732;2023-05-10T01:32:45;10.57;;;8.20;;
8050;SDS011;4068;42.158;24.732;2023-05-10T01:35:32;14.05;;;8.20;;
8050;SDS011;4068;42.158;24.732;2023-05-10T01:38:38;12.90;;;8.43;;
8050;SDS011;4068;42.158;24.732;2023-05-10T01:42:03;16.10;;;9.32;;
8050;SDS011;4068;42.158;24.732;2023-05-10T01:44:16;13.88;;;9.25;;
8050;SDS011;4068;42.158;24.732;2023-05-10T01:46:52;17.73;;;9.38;;
8050;SDS011;4068;42.158;24.732;2023-05-10T01:49:29;16.30;;;9.00;;
8050;SDS011;4068;42.158;24.732;2023-05-10T01:52:00;14.95;;;9.68;;
8050;SDS011;4068;42.158;24.732;2023-05-10T01:54:41;13.93;;;9.30;;
8050;SDS011;4068;42.158;24.732;2023-05-10T01:57:09;14.68;;;9.30;;
8050;SDS011;4068;42.158;24.732;2023-05-10T01:59:39;11.50;;;8.27;;
8050;SDS011;4068;42.158;24.732;2023-05-10T02:02:08;13.38;;;8.23;;
8050;SDS011;4068;42.158;24.732;2023-05-10T02:04:37;11.93;;;8.82;;
8050;SDS011;4068;42.158;24.732;2023-05-10T02:07:04;13.88;;;8.40;;
8050;SDS011;4068;42.158;24.732;2023-05-10T02:09:32;14.60;;;8.65;;
8050;SDS011;4068;42.158;24.732;2023-05-10T02:11:59;15.48;;;9.05;;
8050;SDS011;4068;42.158;24.732;2023-05-10T02:14:27;13.93;;;8.05;;
8050;SDS011;4068;42.158;24.732;2023-05-10T02:16:55;11.20;;;7.75;;
8050;SDS011;4068;42.158;24.732;2023-05-10T02:19:22;12.60;;;8.45;;
8050;SDS011;4068;42.158;24.732;2023-05-10T02:21:49;13.38;;;7.35;;
8050;SDS011;4068;42.158;24.732;2023-05-10T02:24:16;12.55;;;7.20;;
8050;SDS011;4068;42.158;24.732;2023-05-10T02:26:42;11.20;;;7.22;;
8050;SDS011;4068;42.158;24.732;2023-05-10T02:29:10;9.70;;;7.22;;
8050;SDS011;4068;42.158;24.732;2023-05-10T02:31:37;13.80;;;7.10;;
8050;SDS011;4068;42.158;24.732;2023-05-10T02:34:04;13.68;;;7.53;;
8050;SDS011;4068;42.158;24.732;2023-05-10T02:36:32;10.18;;;8.07;;
8050;SDS011;4068;42.158;24.732;2023-05-10T02:38:58;9.20;;;7.13;;
8050;SDS011;4068;42.158;24.732;2023-05-10T02:41:26;11.45;;;8.00;;
8050;SDS011;4068;42.158;24.732;2023-05-10T02:43:52;10.20;;;7.47;;
8050;SDS011;4068;42.158;24.732;2023-05-10T02:46:22;13.48;;;8.48;;
8050;SDS011;4068;42.158;24.732;2023-05-10T02:48:48;13.05;;;8.30;;
8050;SDS011;4068;42.158;24.732;2023-05-10T02:51:13;10.90;;;8.40;;
8050;SDS011;4068;42.158;24.732;2023-05-10T02:53:43;10.65;;;8.00;;
8050;SDS011;4068;42.158;24.732;2023-05-10T02:56:15;12.68;;;7.80;;
8050;SDS011;4068;42.158;24.732;2023-05-10T02:58:48;10.43;;;7.28;;
8050;SDS011;4068;42.158;24.732;2023-05-10T03:01:13;16.80;;;8.05;;
8050;SDS011;4068;42.158;24.732;2023-05-10T03:03:39;10.70;;;7.40;;
8050;SDS011;4068;42.158;24.732;2023-05-10T03:06:04;11.55;;;7.40;;
8050;SDS011;4068;42.158;24.732;2023-05-10T03:08:30;9.73;;;7.60;;
8050;SDS011;4068;42.158;24.732;2023-05-10T03:13:39;15.80;;;8.20;;
8050;SDS011;4068;42.158;24.732;2023-05-10T03:16:15;20.17;;;8.73;;
8050;SDS011;4068;42.158;24.732;2023-05-10T03:21:32;18.13;;;8.18;;
8050;SDS011;4068;42.158;24.732;2023-05-10T03:23:59;13.07;;;7.60;;
8050;SDS011;4068;42.158;24.732;2023-05-10T03:26:33;11.10;;;7.78;;
8050;SDS011;4068;42.158;24.732;2023-05-10T03:28:59;20.75;;;8.90;;
8050;SDS011;4068;42.158;24.732;2023-05-10T03:31:25;11.90;;;7.60;;
8050;SDS011;4068;42.158;24.732;2023-05-10T03:33:52;9.85;;;7.68;;
8050;SDS011;4068;42.158;24.732;2023-05-10T03:36:18;11.43;;;7.75;;
8050;SDS011;4068;42.158;24.732;2023-05-10T03:38:44;10.52;;;7.90;;
8050;SDS011;4068;42.158;24.732;2023-05-10T03:41:09;16.67;;;7.85;;
8050;SDS011;4068;42.158;24.732;2023-05-10T03:43:35;15.52;;;8.23;;
8050;SDS011;4068;42.158;24.732;2023-05-10T03:46:03;13.55;;;8.10;;
8050;SDS011;4068;42.158;24.732;2023-05-10T03:48:30;11.73;;;8.07;;
8050;SDS011;4068;42.158;24.732;2023-05-10T03:50:56;10.93;;;7.70;;
8050;SDS011;4068;42.158;24.732;2023-05-10T03:53:22;15.32;;;7.82;;
8050;SDS011;4068;42.158;24.732;2023-05-10T03:55:48;10.80;;;8.13;;
8050;SDS011;4068;42.158;24.732;2023-05-10T03:58:13;12.70;;;8.07;;
8050;SDS011;4068;42.158;24.732;2023-05-10T04:00:40;17.55;;;8.20;;
8050;SDS011;4068;42.158;24.732;2023-05-10T04:03:08;11.45;;;7.47;;
8050;SDS011;4068;42.158;24.732;2023-05-10T04:05:35;14.10;;;7.65;;
8050;SDS011;4068;42.158;24.732;2023-05-10T04:08:01;13.55;;;7.28;;
8050;SDS011;4068;42.158;24.732;2023-05-10T04:10:26;12.52;;;7.70;;
8050;SDS011;4068;42.158;24.732;2023-05-10T04:12:52;11.70;;;7.63;;
8050;SDS011;4068;42.158;24.732;2023-05-10T04:15:17;11.23;;;7.90;;
8050;SDS011;4068;42.158;24.732;2023-05-10T04:17:43;15.15;;;8.02;;
8050;SDS011;4068;42.158;24.732;2023-05-10T04:20:08;12.82;;;8.18;;
8050;SDS011;4068;42.158;24.732;2023-05-10T04:22:34;12.00;;;7.70;;
8050;SDS011;4068;42.158;24.732;2023-05-10T04:24:59;20.77;;;7.93;;
8050;SDS011;4068;42.158;24.732;2023-05-10T04:27:25;15.13;;;7.70;;
8050;SDS011;4068;42.158;24.732;2023-05-10T04:29:50;16.77;;;8.07;;
8050;SDS011;4068;42.158;24.732;2023-05-10T04:32:16;12.25;;;7.95;;
8050;SDS011;4068;42.158;24.732;2023-05-10T04:34:42;13.38;;;8.95;;
8050;SDS011;4068;42.158;24.732;2023-05-10T04:37:08;14.27;;;7.25;;
8050;SDS011;4068;42.158;24.732;2023-05-10T04:39:33;15.57;;;9.57;;
8050;SDS011;4068;42.158;24.732;2023-05-10T04:42:00;10.23;;;7.78;;
8050;SDS011;4068;42.158;24.732;2023-05-10T04:44:27;12.20;;;7.40;;
8050;SDS011;4068;42.158;24.732;2023-05-10T04:46:53;11.18;;;7.47;;
8050;SDS011;4068;42.158;24.732;2023-05-10T04:49:18;14.15;;;7.45;;
8050;SDS011;4068;42.158;24.732;2023-05-10T04:51:44;12.07;;;7.95;;
8050;SDS011;4068;42.158;24.732;2023-05-10T04:54:09;11.98;;;7.47;;
8050;SDS011;4068;42.158;24.732;2023-05-10T04:56:35;12.68;;;6.88;;
8050;SDS011;4068;42.158;24.732;2023-05-10T04:59:00;8.65;;;7.28;;
8050;SDS011;4068;42.158;24.732;2023-05-10T05:01:26;12.45;;;8.07;;
8050;SDS011;4068;42.158;24.732;2023-05-10T05:03:51;15.55;;;8.48;;
8050;SDS011;4068;42.158;24.732;2023-05-10T05:06:17;11.73;;;8.18;;
8050;SDS011;4068;42.158;24.732;2023-05-10T05:08:43;12.80;;;8.40;;
8050;SDS011;4068;42.158;24.732;2023-05-10T05:11:09;10.20;;;7.38;;
8050;SDS011;4068;42.158;24.732;2023-05-10T05:13:34;14.15;;;8.00;;
8050;SDS011;4068;42.158;24.732;2023-05-10T05:16:00;10.23;;;6.43;;
8050;SDS011;4068;42.158;24.732;2023-05-10T05:18:27;15.02;;;6.88;;
8050;SDS011;4068;42.158;24.732;2023-05-10T05:20:53;8.63;;;6.47;;
8050;SDS011;4068;42.158;24.732;2023-05-10T05:23:18;15.57;;;7.63;;
8050;SDS011;4068;42.158;24.732;2023-05-10T05:25:45;17.20;;;6.80;;
8050;SDS011;4068;42.158;24.732;2023-05-10T05:28:11;9.48;;;6.10;;
8050;SDS011;4068;42.158;24.732;2023-05-10T05:30:37;8.02;;;6.53;;
8050;SDS011;4068;42.158;24.732;2023-05-10T05:33:02;10.18;;;6.55;;
8050;SDS011;4068;42.158;24.732;2023-05-10T05:35:28;15.75;;;8.35;;
8050;SDS011;4068;42.158;24.732;2023-05-10T05:37:53;10.75;;;7.40;;
8050;SDS011;4068;42.158;24.732;2023-05-10T05:40:19;10.23;;;6.30;;
8050;SDS011;4068;42.158;24.732;2023-05-10T05:42:45;12.68;;;6.82;;
8050;SDS011;4068;42.158;24.732;2023-05-10T05:45:11;11.20;;;7.03;;
8050;SDS011;4068;42.158;24.732;2023-05-10T05:47:38;14.90;;;6.53;;
8050;SDS011;4068;42.158;24.732;2023-05-10T05:50:04;10.18;;;6.45;;
8050;SDS011;4068;42.158;24.732;2023-05-10T05:52:30;15.23;;;7.30;;
8050;SDS011;4068;42.158;24.732;2023-05-10T05:54:56;10.80;;;6.07;;
8050;SDS011;4068;42.158;24.732;2023-05-10T05:57:21;12.70;;;6.45;;
8050;SDS011;4068;42.158;24.732;2023-05-10T05:59:46;10.88;;;6.53;;
8050;SDS011;4068;42.158;24.732;2023-05-10T06:02:12;10.85;;;6.20;;
8050;SDS011;4068;42.158;24.732;2023-05-10T06:04:38;13.10;;;6.07;;
8050;SDS011;4068;42.158;24.732;2023-05-10T06:07:03;13.50;;;6.30;;
8050;SDS011;4068;42.158;24.732;2023-05-10T06:09:29;16.40;;;6.75;;
8050;SDS011;4068;42.158;24.732;2023-05-10T06:11:54;9.40;;;6.10;;
8050;SDS011;4068;42.158;24.732;2023-05-10T06:14:20;14.52;;;7.05;;
8050;SDS011;4068;42.158;24.732;2023-05-10T06:16:46;12.18;;;6.95;;
8050;SDS011;4068;42.158;24.732;2023-05-10T06:19:11;18.08;;;7.35;;
8050;SDS011;4068;42.158;24.732;2023-05-10T06:21:37;21.88;;;7.50;;
8050;SDS011;4068;42.158;24.732;2023-05-10T06:24:03;14.27;;;6.38;;
8050;SDS011;4068;42.158;24.732;2023-05-10T06:26:28;9.63;;;6.15;;
8050;SDS011;4068;42.158;24.732;2023-05-10T06:28:54;13.35;;;6.75;;
8050;SDS011;4068;42.158;24.732;2023-05-10T06:31:19;14.32;;;6.50;;
8050;SDS011;4068;42.158;24.732;2023-05-10T06:33:45;11.18;;;7.40;;
8050;SDS011;4068;42.158;24.732;2023-05-10T06:36:10;9.43;;;5.85;;
8050;SDS011;4068;42.158;24.732;2023-05-10T06:38:36;8.05;;;5.70;;
8050;SDS011;4068;42.158;24.732;2023-05-10T06:41:01;12.18;;;6.75;;
8050;SDS011;4068;42.158;24.732;2023-05-10T06:43:26;10.43;;;5.72;;
8050;SDS011;4068;42.158;24.732;2023-05-10T06:45:53;9.85;;;6.95;;
8050;SDS011;4068;42.158;24.732;2023-05-10T06:48:19;11.90;;;5.70;;
8050;SDS011;4068;42.158;24.732;2023-05-10T06:50:44;5.90;;;5.30;;
8050;SDS011;4068;42.158;24.732;2023-05-10T06:53:09;10.32;;;6.90;;
8050;SDS011;4068;42.158;24.732;2023-05-10T06:55:36;14.73;;;6.78;;
8050;SDS011;4068;42.158;24.732;2023-05-10T06:58:02;7.85;;;5.70;;
8050;SDS011;4068;42.158;24.732;2023-05-10T07:00:27;10.40;;;6.93;;
8050;SDS011;4068;42.158;24.732;2023-05-10T07:02:53;12.05;;;5.30;;
8050;SDS011;4068;42.158;24.732;2023-05-10T07:05:18;17.10;;;6.57;;
8050;SDS011;4068;42.158;24.732;2023-05-10T07:07:44;11.80;;;6.07;;
8050;SDS011;4068;42.158;24.732;2023-05-10T07:10:10;8.63;;;5.57;;
8050;SDS011;4068;42.158;24.732;2023-05-10T07:12:35;10.27;;;5.90;;
8050;SDS011;4068;42.158;24.732;2023-05-10T07:15:01;7.32;;;5.93;;
8050;SDS011;4068;42.158;24.732;2023-05-10T07:17:26;11.05;;;5.38;;
8050;SDS011;4068;42.158;24.732;2023-05-10T07:19:52;7.93;;;5.80;;
8050;SDS011;4068;42.158;24.732;2023-05-10T07:22:17;8.80;;;5.90;;
8050;SDS011;4068;42.158;24.732;2023-05-10T07:24:43;8.63;;;5.63;;
8050;SDS011;4068;42.158;24.732;2023-05-10T07:27:09;6.65;;;5.32;;
8050;SDS011;4068;42.158;24.732;2023-05-10T07:29:35;9.82;;;5.80;;
8050;SDS011;4068;42.158;24.732;2023-05-10T07:32:00;6.28;;;5.03;;
8050;SDS011;4068;42.158;24.732;2023-05-10T07:34:26;6.80;;;5.30;;
8050;SDS011;4068;42.158;24.732;2023-05-10T07:36:52;6.82;;;5.50;;
8050;SDS011;4068;42.158;24.732;2023-05-10T07:39:18;10.65;;;5.82;;
8050;SDS011;4068;42.158;24.732;2023-05-10T07:41:43;7.57;;;5.88;;
8050;SDS011;4068;42.158;24.732;2023-05-10T07:44:08;9.20;;;5.80;;
8050;SDS011;4068;42.158;24.732;2023-05-10T07:46:34;8.75;;;5.32;;
8050;SDS011;4068;42.158;24.732;2023-05-10T07:48:59;7.70;;;4.50;;
8050;SDS011;4068;42.158;24.732;2023-05-10T07:51:25;10.95;;;5.13;;
8050;SDS011;4068;42.158;24.732;2023-05-10T07:53:50;11.73;;;5.90;;
8050;SDS011;4068;42.158;24.732;2023-05-10T07:56:20;8.68;;;4.07;;
8050;SDS011;4068;42.158;24.732;2023-05-10T07:58:47;12.45;;;5.50;;
8050;SDS011;4068;42.158;24.732;2023-05-10T08:01:12;7.00;;;4.82;;
8050;SDS011;4068;42.158;24.732;2023-05-10T08:03:38;6.88;;;4.75;;
8050;SDS011;4068;42.158;24.732;2023-05-10T08:06:03;10.13;;;3.92;;
8050;SDS011;4068;42.158;24.732;2023-05-10T08:08:29;6.68;;;4.00;;
8050;SDS011;4068;42.158;24.732;2023-05-10T08:10:57;10.80;;;4.63;;
8050;SDS011;4068;42.158;24.732;2023-05-10T08:13:22;8.00;;;4.47;;
8050;SDS011;4068;42.158;24.732;2023-05-10T08:15:48;9.13;;;4.28;;
8050;SDS011;4068;42.158;24.732;2023-05-10T08:18:13;7.47;;;4.55;;
8050;SDS011;4068;42.158;24.732;2023-05-10T08:20:39;7.75;;;4.18;;
8050;SDS011;4068;42.158;24.732;2023-05-10T08:23:04;8.73;;;4.22;;
8050;SDS011;4068;42.158;24.732;2023-05-10T08:25:30;7.30;;;4.30;;
8050;SDS011;4068;42.158;24.732;2023-05-10T08:27:56;7.93;;;4.90;;
8050;SDS011;4068;42.158;24.732;2023-05-10T08:30:22;6.45;;;4.43;;
8050;SDS011;4068;42.158;24.732;2023-05-10T08:32:47;7.35;;;4.50;;
8050;SDS011;4068;42.158;24.732;2023-05-10T08:35:13;7.13;;;4.20;;
8050;SDS011;4068;42.158;24.732;2023-05-10T08:37:38;6.10;;;4.63;;
8050;SDS011;4068;42.158;24.732;2023-05-10T08:40:04;13.43;;;4.88;;
8050;SDS011;4068;42.158;24.732;2023-05-10T08:42:30;8.55;;;4.68;;
8050;SDS011;4068;42.158;24.732;2023-05-10T08:45:01;5.85;;;4.28;;
8050;SDS011;4068;42.158;24.732;2023-05-10T08:47:28;5.88;;;4.50;;
8050;SDS011;4068;42.158;24.732;2023-05-10T08:49:54;6.97;;;4.38;;
8050;SDS011;4068;42.158;24.732;2023-05-10T08:52:20;7.55;;;4.13;;
8050;SDS011;4068;42.158;24.732;2023-05-10T08:54:48;4.28;;;3.88;;
8050;SDS011;4068;42.158;24.732;2023-05-10T08:57:14;5.28;;;4.30;;
8050;SDS011;4068;42.158;24.732;2023-05-10T08:59:40;9.82;;;4.20;;
8050;SDS011;4068;42.158;24.732;2023-05-10T09:02:05;8.10;;;4.93;;
8050;SDS011;4068;42.158;24.732;2023-05-10T09:04:32;9.48;;;4.55;;
8050;SDS011;4068;42.158;24.732;2023-05-10T09:06:57;11.00;;;5.85;;
8050;SDS011;4068;42.158;24.732;2023-05-10T09:09:23;4.90;;;4.15;;
8050;SDS011;4068;42.158;24.732;2023-05-10T09:11:50;6.68;;;4.90;;
8050;SDS011;4068;42.158;24.732;2023-05-10T09:14:16;8.73;;;4.78;;
8050;SDS011;4068;42.158;24.732;2023-05-10T09:16:43;7.63;;;4.60;;
8050;SDS011;4068;42.158;24.732;2023-05-10T09:19:09;7.50;;;3.88;;
8050;SDS011;4068;42.158;24.732;2023-05-10T09:21:35;4.95;;;4.45;;
8050;SDS011;4068;42.158;24.732;2023-05-10T09:24:06;6.15;;;4.45;;
8050;SDS011;4068;42.158;24.732;2023-05-10T09:26:33;5.72;;;4.70;;
8050;SDS011;4068;42.158;24.732;2023-05-10T09:29:00;8.32;;;4.85;;
8050;SDS011;4068;42.158;24.732;2023-05-10T09:31:46;7.57;;;5.10;;
8050;SDS011;4068;42.158;24.732;2023-05-10T09:34:15;5.30;;;4.25;;
8050;SDS011;4068;42.158;24.732;2023-05-10T09:36:55;5.32;;;4.38;;
8050;SDS011;4068;42.158;24.732;2023-05-10T09:42:02;6.20;;;4.30;;
8050;SDS011;4068;42.158;24.732;2023-05-10T09:44:30;10.43;;;4.40;;
8050;SDS011;4068;42.158;24.732;2023-05-10T09:46:56;6.25;;;4.30;;
8050;SDS011;4068;42.158;24.732;2023-05-10T09:49:22;5.75;;;4.03;;
8050;SDS011;4068;42.158;24.732;2023-05-10T09:51:47;6.72;;;4.95;;
8050;SDS011;4068;42.158;24.732;2023-05-10T09:54:22;6.40;;;4.85;;
8050;SDS011;4068;42.158;24.732;2023-05-10T09:56:48;9.20;;;4.68;;
8050;SDS011;4068;42.158;24.732;2023-05-10T09:59:14;8.30;;;4.80;;
8050;SDS011;4068;42.158;24.732;2023-05-10T10:01:40;7.85;;;5.05;;
8050;SDS011;4068;42.158;24.732;2023-05-10T10:04:06;8.65;;;4.75;;
8050;SDS011;4068;42.158;24.732;2023-05-10T10:06:37;7.05;;;4.55;;
8050;SDS011;4068;42.158;24.732;2023-05-10T10:09:03;6.93;;;4.78;;
8050;SDS011;4068;42.158;24.732;2023-05-10T10:11:30;5.65;;;4.32;;
8050;SDS011;4068;42.158;24.732;2023-05-10T10:13:56;7.97;;;4.43;;
8050;SDS011;4068;42.158;24.732;2023-05-10T10:16:21;8.15;;;4.70;;
8050;SDS011;4068;42.158;24.732;2023-05-10T10:18:47;9.10;;;5.10;;
8050;SDS011;4068;42.158;24.732;2023-05-10T10:21:13;5.65;;;4.45;;
8050;SDS011;4068;42.158;24.732;2023-05-10T10:23:39;5.32;;;4.50;;
8050;SDS011;4068;42.158;24.732;2023-05-10T10:26:05;7.03;;;4.00;;
8050;SDS011;4068;42.158;24.732;2023-05-10T10:30:59;5.05;;;4.38;;
8050;SDS011;4068;42.158;24.732;2023-05-10T10:33:40;4.97;;;4.28;;
8050;SDS011;4068;42.158;24.732;2023-05-10T10:36:15;7.20;;;4.70;;
8050;SDS011;4068;42.158;24.732;2023-05-10T10:47:33;16.65;;;5.93;;
8050;SDS011;4068;42.158;24.732;2023-05-10T10:49:48;9.63;;;4.80;;
8050;SDS011;4068;42.158;24.732;2023-05-10T10:57:52;5.00;;;4.30;;
8050;SDS011;4068;42.158;24.732;2023-05-10T11:07:57;9.63;;;4.75;;
8050;SDS011;4068;42.158;24.732;2023-05-10T11:10:24;6.63;;;4.68;;
8050;SDS011;4068;42.158;24.732;2023-05-10T11:15:33;7.10;;;4.93;;
8050;SDS011;4068;42.158;24.732;2023-05-10T11:17:59;5.60;;;5.00;;
8050;SDS011;4068;42.158;24.732;2023-05-10T11:20:28;5.57;;;4.97;;
8050;SDS011;4068;42.158;24.732;2023-05-10T11:23:00;5.70;;;5.10;;
8050;SDS011;4068;42.158;24.732;2023-05-10T11:25:43;5.95;;;5.45;;
8050;SDS011;4068;42.158;24.732;2023-05-10T11:28:13;6.97;;;5.05;;
8050;SDS011;4068;42.158;24.732;2023-05-10T11:30:38;7.88;;;6.30;;
8050;SDS011;4068;42.158;24.732;2023-05-10T11:33:05;7.30;;;5.22;;
8050;SDS011;4068;42.158;24.732;2023-05-10T11:35:36;8.13;;;5.35;;
8050;SDS011;4068;42.158;24.732;2023-05-10T11:38:04;7.95;;;5.25;;
8050;SDS011;4068;42.158;24.732;2023-05-10T11:40:34;10.45;;;4.97;;
8050;SDS011;4068;42.158;24.732;2023-05-10T11:43:00;6.65;;;4.90;;
8050;SDS011;4068;42.158;24.732;2023-05-10T11:45:25;6.75;;;4.70;;
8050;SDS011;4068;42.158;24.732;2023-05-10T11:47:52;7.78;;;4.30;;
8050;SDS011;4068;42.158;24.732;2023-05-10T11:50:18;5.82;;;5.00;;
8050;SDS011;4068;42.158;24.732;2023-05-10T11:52:43;6.88;;;4.47;;
8050;SDS011;4068;42.158;24.732;2023-05-10T11:55:09;4.97;;;4.47;;
8050;SDS011;4068;42.158;24.732;2023-05-10T11:57:35;10.27;;;5.22;;
8050;SDS011;4068;42.158;24.732;2023-05-10T12:00:03;5.10;;;4.65;;
8050;SDS011;4068;42.158;24.732;2023-05-10T12:02:29;5.93;;;4.53;;
8050;SDS011;4068;42.158;24.732;2023-05-10T12:04:55;7.80;;;5.40;;
8050;SDS011;4068;42.158;24.732;2023-05-10T12:07:21;5.68;;;5.18;;
8050;SDS011;4068;42.158;24.732;2023-05-10T12:12:45;6.68;;;5.88;;
8050;SDS011;4068;42.158;24.732;2023-05-10T12:15:19;7.93;;;5.25;;
8050;SDS011;4068;42.158;24.732;2023-05-10T12:17:47;9.30;;;5.88;;
8050;SDS011;4068;42.158;24.732;2023-05-10T12:20:22;5.70;;;5.20;;
8050;SDS011;4068;42.158;24.732;2023-05-10T12:22:50;6.25;;;5.40;;
8050;SDS011;4068;42.158;24.732;2023-05-10T12:25:20;6.40;;;5.80;;
8050;SDS011;4068;42.158;24.732;2023-05-10T12:27:57;7.03;;;5.05;;
8050;SDS011;4068;42.158;24.732;2023-05-10T12:30:26;7.10;;;5.35;;
8050;SDS011;4068;42.158;24.732;2023-05-10T12:32:53;10.68;;;5.97;;
8050;SDS011;4068;42.158;24.732;2023-05-10T12:35:24;7.72;;;5.80;;
8050;SDS011;4068;42.158;24.732;2023-05-10T12:37:52;9.70;;;6.07;;
8050;SDS011;4068;42.158;24.732;2023-05-10T12:40:18;5.95;;;5.35;;
8050;SDS011;4068;42.158;24.732;2023-05-10T12:42:43;6.20;;;5.60;;
8050;SDS011;4068;42.158;24.732;2023-05-10T12:45:12;7.38;;;5.97;;
8050;SDS011;4068;42.158;24.732;2023-05-10T12:47:37;10.73;;;5.82;;
8050;SDS011;4068;42.158;24.732;2023-05-10T12:50:03;6.50;;;5.90;;
8050;SDS011;4068;42.158;24.732;2023-05-10T12:52:30;7.10;;;5.85;;
8050;SDS011;4068;42.158;24.732;2023-05-10T12:54:59;10.35;;;6.55;;
8050;SDS011;4068;42.158;24.732;2023-05-10T12:57:25;8.80;;;5.82;;
8050;SDS011;4068;42.158;24.732;2023-05-10T12:59:50;6.53;;;5.93;;
8050;SDS011;4068;42.158;24.732;2023-05-10T13:02:16;11.45;;;7.15;;
8050;SDS011;4068;42.158;24.732;2023-05-10T13:04:45;6.65;;;6.00;;
8050;SDS011;4068;42.158;24.732;2023-05-10T13:07:11;8.88;;;7.18;;
8050;SDS011;4068;42.158;24.732;2023-05-10T13:09:37;7.22;;;6.30;;
8050;SDS011;4068;42.158;24.732;2023-05-10T13:12:02;8.57;;;6.75;;
8050;SDS011;4068;42.158;24.732;2023-05-10T13:14:29;9.13;;;7.32;;
8050;SDS011;4068;42.158;24.732;2023-05-10T13:16:54;11.27;;;6.60;;
8050;SDS011;4068;42.158;24.732;2023-05-10T13:19:20;7.32;;;6.28;;
8050;SDS011;4068;42.158;24.732;2023-05-10T13:21:45;5.95;;;5.18;;
8050;SDS011;4068;42.158;24.732;2023-05-10T13:24:11;7.70;;;5.70;;
8050;SDS011;4068;42.158;24.732;2023-05-10T13:26:38;8.10;;;6.28;;
8050;SDS011;4068;42.158;24.732;2023-05-10T13:29:07;12.32;;;6.13;;
8050;SDS011;4068;42.158;24.732;2023-05-10T13:31:33;7.15;;;5.45;;
8050;SDS011;4068;42.158;24.732;2023-05-10T13:33:59;6.28;;;5.57;;
8050;SDS011;4068;42.158;24.732;2023-05-10T13:36:25;9.45;;;6.22;;
8050;SDS011;4068;42.158;24.732;2023-05-10T13:38:50;7.30;;;5.93;;
8050;SDS011;4068;42.158;24.732;2023-05-10T13:41:16;7.10;;;6.30;;
8050;SDS011;4068;42.158;24.732;2023-05-10T13:43:41;7.55;;;6.22;;
8050;SDS011;4068;42.158;24.732;2023-05-10T13:46:06;7.32;;;6.50;;
8050;SDS011;4068;42.158;24.732;2023-05-10T13:48:32;8.02;;;6.05;;
8050;SDS011;4068;42.158;24.732;2023-05-10T13:50:58;9.32;;;6.65;;
8050;SDS011;4068;42.158;24.732;2023-05-10T13:53:24;9.65;;;7.18;;
8050;SDS011;4068;42.158;24.732;2023-05-10T13:55:49;9.25;;;7.18;;
8050;SDS011;4068;42.158;24.732;2023-05-10T13:58:15;10.80;;;7.03;;
8050;SDS011;4068;42.158;24.732;2023-05-10T14:00:40;7.72;;;6.32;;
8050;SDS011;4068;42.158;24.732;2023-05-10T14:03:06;9.65;;;6.95;;
8050;SDS011;4068;42.158;24.732;2023-05-10T14:05:34;11.40;;;7.47;;
8050;SDS011;4068;42.158;24.732;2023-05-10T14:07:59;11.48;;;8.10;;
8050;SDS011;4068;42.158;24.732;2023-05-10T14:10:24;7.65;;;6.80;;
8050;SDS011;4068;42.158;24.732;2023-05-10T14:12:50;8.75;;;6.25;;
8050;SDS011;4068;42.158;24.732;2023-05-10T14:15:15;7.78;;;6.85;;
8050;SDS011;4068;42.158;24.732;2023-05-10T14:17:41;9.68;;;7.20;;
8050;SDS011;4068;42.158;24.732;2023-05-10T14:20:07;8.15;;;7.35;;
8050;SDS011;4068;42.158;24.732;2023-05-10T14:22:33;11.82;;;7.70;;
8050;SDS011;4068;42.158;24.732;2023-05-10T14:24:59;8.85;;;6.45;;
8050;SDS011;4068;42.158;24.732;2023-05-10T14:27:24;13.07;;;6.47;;
8050;SDS011;4068;42.158;24.732;2023-05-10T14:29:50;12.63;;;7.38;;
8050;SDS011;4068;42.158;24.732;2023-05-10T14:32:15;9.65;;;6.10;;
8050;SDS011;4068;42.158;24.732;2023-05-10T14:34:40;9.02;;;7.10;;
8050;SDS011;4068;42.158;24.732;2023-05-10T14:37:06;8.57;;;6.60;;
8050;SDS011;4068;42.158;24.732;2023-05-10T14:39:31;9.68;;;7.30;;
8050;SDS011;4068;42.158;24.732;2023-05-10T14:41:58;10.63;;;6.45;;
8050;SDS011;4068;42.158;24.732;2023-05-10T14:44:23;8.20;;;5.50;;
8050;SDS011;4068;42.158;24.732;2023-05-10T14:46:49;8.77;;;5.50;;
8050;SDS011;4068;42.158;24.732;2023-05-10T14:49:14;9.05;;;5.10;;
8050;SDS011;4068;42.158;24.732;2023-05-10T14:51:40;11.30;;;5.70;;
8050;SDS011;4068;42.158;24.732;2023-05-10T14:54:05;9.70;;;5.63;;
8050;SDS011;4068;42.158;24.732;2023-05-10T14:56:31;6.57;;;5.82;;
8050;SDS011;4068;42.158;24.732;2023-05-10T14:58:56;5.65;;;5.10;;
8050;SDS011;4068;42.158;24.732;2023-05-10T15:01:22;6.45;;;5.10;;
8050;SDS011;4068;42.158;24.732;2023-05-10T15:03:47;8.88;;;5.03;;
8050;SDS011;4068;42.158;24.732;2023-05-10T15:06:13;11.43;;;5.18;;
8050;SDS011;4068;42.158;24.732;2023-05-10T15:08:40;9.82;;;5.78;;
8050;SDS011;4068;42.158;24.732;2023-05-10T15:11:06;9.68;;;5.78;;
8050;SDS011;4068;42.158;24.732;2023-05-10T15:13:31;8.32;;;5.38;;
8050;SDS011;4068;42.158;24.732;2023-05-10T15:15:57;6.55;;;5.57;;
8050;SDS011;4068;42.158;24.732;2023-05-10T15:18:22;8.40;;;5.68;;
8050;SDS011;4068;42.158;24.732;2023-05-10T15:20:48;11.85;;;6.35;;
8050;SDS011;4068;42.158;24.732;2023-05-10T15:23:13;9.25;;;6.05;;
8050;SDS011;4068;42.158;24.732;2023-05-10T15:25:38;8.20;;;6.45;;
8050;SDS011;4068;42.158;24.732;2023-05-10T15:28:04;8.98;;;6.40;;
8050;SDS011;4068;42.158;24.732;2023-05-10T15:30:30;10.20;;;6.68;;
8050;SDS011;4068;42.158;24.732;2023-05-10T15:32:55;11.43;;;5.70;;
8050;SDS011;4068;42.158;24.732;2023-05-10T15:35:21;7.15;;;5.50;;
8050;SDS011;4068;42.158;24.732;2023-05-10T15:37:47;8.65;;;6.47;;
8050;SDS011;4068;42.158;24.732;2023-05-10T15:40:13;10.38;;;6.05;;